< < Back
Terminal Aerodrome Forecast


Current Version              Previous Versions:   1  2  3  4  5  6  7  8  9  

Terminal Aerodrome Forecast

865
FTUS44 KBMX 281950 AAA
TAFBHM
TAF AMD
KBHM 281950Z 2820/2918 09012KT P6SM VCSH SCT050 SCT250
     FM290100 07004KT P6SM SCT250=

Latest METAR

074
SAUS70 KWBC 282000 RRV
MTRBHM
METAR KBHM 290253Z 04005KT 10SM BKN200 26/23 A3010 RMK AO2 SLP183 60006
T02610228 51016


USA.gov is the U.S. government's official web portal to all federal, state and local government web resources and services.